sensor_id;sensor_type;location;lat;lon;timestamp;P1;durP1;ratioP1;P2;durP2;ratioP2
47219;SDS011;32961;51.936;4.788;2023-08-30T00:00:32;9.02;;;4.13;;
47219;SDS011;32961;51.936;4.788;2023-08-30T00:03:00;6.13;;;4.30;;
47219;SDS011;32961;51.936;4.788;2023-08-30T00:05:28;7.30;;;4.45;;
47219;SDS011;32961;51.936;4.788;2023-08-30T00:07:56;5.53;;;4.32;;
47219;SDS011;32961;51.936;4.788;2023-08-30T00:10:24;7.10;;;4.65;;
47219;SDS011;32961;51.936;4.788;2023-08-30T00:12:51;8.05;;;4.25;;
47219;SDS011;32961;51.936;4.788;2023-08-30T00:15:19;6.32;;;4.85;;
47219;SDS011;32961;51.936;4.788;2023-08-30T00:17:49;8.50;;;5.15;;
47219;SDS011;32961;51.936;4.788;2023-08-30T00:20:18;8.00;;;5.72;;
47219;SDS011;32961;51.936;4.788;2023-08-30T00:22:46;12.70;;;5.22;;
47219;SDS011;32961;51.936;4.788;2023-08-30T00:25:15;7.22;;;5.68;;
47219;SDS011;32961;51.936;4.788;2023-08-30T00:27:43;10.13;;;5.47;;
47219;SDS011;32961;51.936;4.788;2023-08-30T00:30:11;6.07;;;5.22;;
47219;SDS011;32961;51.936;4.788;2023-08-30T00:32:39;8.02;;;5.80;;
47219;SDS011;32961;51.936;4.788;2023-08-30T00:35:09;7.45;;;5.00;;
47219;SDS011;32961;51.936;4.788;2023-08-30T00:37:37;9.25;;;5.90;;
47219;SDS011;32961;51.936;4.788;2023-08-30T00:40:05;9.88;;;5.70;;
47219;SDS011;32961;51.936;4.788;2023-08-30T00:42:33;8.48;;;6.15;;
47219;SDS011;32961;51.936;4.788;2023-08-30T00:45:01;10.93;;;5.82;;
47219;SDS011;32961;51.936;4.788;2023-08-30T00:47:29;8.85;;;5.75;;
47219;SDS011;32961;51.936;4.788;2023-08-30T00:49:57;11.40;;;6.78;;
47219;SDS011;32961;51.936;4.788;2023-08-30T00:52:26;10.77;;;6.20;;
47219;SDS011;32961;51.936;4.788;2023-08-30T00:54:54;10.07;;;6.38;;
47219;SDS011;32961;51.936;4.788;2023-08-30T00:57:22;8.70;;;5.88;;
47219;SDS011;32961;51.936;4.788;2023-08-30T00:59:50;9.27;;;6.32;;
47219;SDS011;32961;51.936;4.788;2023-08-30T01:02:20;14.77;;;6.30;;
47219;SDS011;32961;51.936;4.788;2023-08-30T01:04:50;11.10;;;6.80;;
47219;SDS011;32961;51.936;4.788;2023-08-30T01:07:18;24.75;;;6.95;;
47219;SDS011;32961;51.936;4.788;2023-08-30T01:09:47;7.95;;;5.90;;
47219;SDS011;32961;51.936;4.788;2023-08-30T01:12:17;10.65;;;6.20;;
47219;SDS011;32961;51.936;4.788;2023-08-30T01:14:51;9.35;;;6.22;;
47219;SDS011;32961;51.936;4.788;2023-08-30T01:17:25;10.30;;;6.75;;
47219;SDS011;32961;51.936;4.788;2023-08-30T01:19:56;8.10;;;6.18;;
47219;SDS011;32961;51.936;4.788;2023-08-30T01:22:29;11.40;;;6.45;;
47219;SDS011;32961;51.936;4.788;2023-08-30T01:25:14;11.40;;;6.70;;
47219;SDS011;32961;51.936;4.788;2023-08-30T01:27:48;9.48;;;6.47;;
47219;SDS011;32961;51.936;4.788;2023-08-30T01:30:18;10.48;;;6.65;;
47219;SDS011;32961;51.936;4.788;2023-08-30T01:32:48;11.27;;;6.40;;
47219;SDS011;32961;51.936;4.788;2023-08-30T01:35:17;9.32;;;6.22;;
47219;SDS011;32961;51.936;4.788;2023-08-30T01:37:49;12.60;;;6.53;;
47219;SDS011;32961;51.936;4.788;2023-08-30T01:40:17;7.82;;;5.57;;
47219;SDS011;32961;51.936;4.788;2023-08-30T01:42:46;8.65;;;6.40;;
47219;SDS011;32961;51.936;4.788;2023-08-30T01:45:17;8.18;;;6.43;;
47219;SDS011;32961;51.936;4.788;2023-08-30T01:47:47;13.27;;;6.88;;
47219;SDS011;32961;51.936;4.788;2023-08-30T01:50:15;11.80;;;7.50;;
47219;SDS011;32961;51.936;4.788;2023-08-30T01:52:44;11.70;;;6.93;;
47219;SDS011;32961;51.936;4.788;2023-08-30T01:55:14;14.80;;;8.32;;
47219;SDS011;32961;51.936;4.788;2023-08-30T01:57:42;10.05;;;7.80;;
47219;SDS011;32961;51.936;4.788;2023-08-30T02:00:12;12.18;;;7.57;;
47219;SDS011;32961;51.936;4.788;2023-08-30T02:02:41;11.70;;;8.23;;
47219;SDS011;32961;51.936;4.788;2023-08-30T02:05:09;17.67;;;8.98;;
47219;SDS011;32961;51.936;4.788;2023-08-30T02:07:40;15.18;;;8.45;;
47219;SDS011;32961;51.936;4.788;2023-08-30T02:10:15;12.82;;;9.07;;
47219;SDS011;32961;51.936;4.788;2023-08-30T02:12:46;12.38;;;8.60;;
47219;SDS011;32961;51.936;4.788;2023-08-30T02:15:17;14.90;;;8.88;;
47219;SDS011;32961;51.936;4.788;2023-08-30T02:17:46;11.20;;;9.05;;
47219;SDS011;32961;51.936;4.788;2023-08-30T02:20:16;14.27;;;8.73;;
47219;SDS011;32961;51.936;4.788;2023-08-30T02:22:44;13.18;;;8.90;;
47219;SDS011;32961;51.936;4.788;2023-08-30T02:25:12;14.85;;;9.50;;
47219;SDS011;32961;51.936;4.788;2023-08-30T02:27:40;12.55;;;8.57;;
47219;SDS011;32961;51.936;4.788;2023-08-30T02:30:08;12.73;;;8.13;;
47219;SDS011;32961;51.936;4.788;2023-08-30T02:32:38;12.63;;;9.27;;
47219;SDS011;32961;51.936;4.788;2023-08-30T02:35:06;12.45;;;8.15;;
47219;SDS011;32961;51.936;4.788;2023-08-30T02:37:34;13.13;;;8.73;;
47219;SDS011;32961;51.936;4.788;2023-08-30T02:40:03;11.68;;;8.82;;
47219;SDS011;32961;51.936;4.788;2023-08-30T02:42:31;17.02;;;8.20;;
47219;SDS011;32961;51.936;4.788;2023-08-30T02:44:59;14.02;;;8.85;;
47219;SDS011;32961;51.936;4.788;2023-08-30T02:47:27;14.13;;;8.55;;
47219;SDS011;32961;51.936;4.788;2023-08-30T02:49:56;12.18;;;9.02;;
47219;SDS011;32961;51.936;4.788;2023-08-30T02:52:24;13.68;;;8.52;;
47219;SDS011;32961;51.936;4.788;2023-08-30T02:54:52;12.85;;;9.18;;
47219;SDS011;32961;51.936;4.788;2023-08-30T02:57:19;15.02;;;8.95;;
47219;SDS011;32961;51.936;4.788;2023-08-30T02:59:47;11.90;;;8.60;;
47219;SDS011;32961;51.936;4.788;2023-08-30T03:02:15;12.75;;;8.50;;
47219;SDS011;32961;51.936;4.788;2023-08-30T03:04:43;11.43;;;8.63;;
47219;SDS011;32961;51.936;4.788;2023-08-30T03:07:12;20.38;;;9.32;;
47219;SDS011;32961;51.936;4.788;2023-08-30T03:09:40;12.20;;;8.50;;
47219;SDS011;32961;51.936;4.788;2023-08-30T03:12:08;11.73;;;8.65;;
47219;SDS011;32961;51.936;4.788;2023-08-30T03:14:35;15.60;;;9.02;;
47219;SDS011;32961;51.936;4.788;2023-08-30T03:17:03;13.52;;;9.13;;
47219;SDS011;32961;51.936;4.788;2023-08-30T03:19:31;11.40;;;8.43;;
47219;SDS011;32961;51.936;4.788;2023-08-30T03:21:59;15.18;;;8.88;;
47219;SDS011;32961;51.936;4.788;2023-08-30T03:24:28;14.25;;;9.25;;
47219;SDS011;32961;51.936;4.788;2023-08-30T03:26:56;15.82;;;8.98;;
47219;SDS011;32961;51.936;4.788;2023-08-30T03:29:24;13.05;;;9.02;;
47219;SDS011;32961;51.936;4.788;2023-08-30T03:31:51;14.75;;;8.88;;
47219;SDS011;32961;51.936;4.788;2023-08-30T03:34:19;18.35;;;9.45;;
47219;SDS011;32961;51.936;4.788;2023-08-30T03:36:47;13.98;;;8.73;;
47219;SDS011;32961;51.936;4.788;2023-08-30T03:39:20;15.57;;;8.93;;
47219;SDS011;32961;51.936;4.788;2023-08-30T03:41:49;13.82;;;9.23;;
47219;SDS011;32961;51.936;4.788;2023-08-30T03:44:17;13.75;;;9.57;;
47219;SDS011;32961;51.936;4.788;2023-08-30T03:46:45;14.23;;;9.85;;
47219;SDS011;32961;51.936;4.788;2023-08-30T03:49:13;13.38;;;9.55;;
47219;SDS011;32961;51.936;4.788;2023-08-30T03:51:40;13.45;;;8.95;;
47219;SDS011;32961;51.936;4.788;2023-08-30T03:54:08;14.65;;;9.50;;
47219;SDS011;32961;51.936;4.788;2023-08-30T03:56:39;13.68;;;9.68;;
47219;SDS011;32961;51.936;4.788;2023-08-30T03:59:09;13.73;;;9.48;;
47219;SDS011;32961;51.936;4.788;2023-08-30T04:01:36;13.13;;;10.07;;
47219;SDS011;32961;51.936;4.788;2023-08-30T04:04:04;16.88;;;9.90;;
47219;SDS011;32961;51.936;4.788;2023-08-30T04:06:32;13.90;;;10.63;;
47219;SDS011;32961;51.936;4.788;2023-08-30T04:09:00;12.80;;;9.32;;
47219;SDS011;32961;51.936;4.788;2023-08-30T04:11:28;15.82;;;10.07;;
47219;SDS011;32961;51.936;4.788;2023-08-30T04:13:56;14.43;;;9.45;;
47219;SDS011;32961;51.936;4.788;2023-08-30T04:16:25;14.07;;;9.75;;
47219;SDS011;32961;51.936;4.788;2023-08-30T04:18:53;15.15;;;8.80;;
47219;SDS011;32961;51.936;4.788;2023-08-30T04:21:21;14.40;;;9.45;;
47219;SDS011;32961;51.936;4.788;2023-08-30T04:23:49;12.40;;;9.20;;
47219;SDS011;32961;51.936;4.788;2023-08-30T04:26:16;13.45;;;9.30;;
47219;SDS011;32961;51.936;4.788;2023-08-30T04:28:44;12.23;;;8.50;;
47219;SDS011;32961;51.936;4.788;2023-08-30T04:31:12;14.27;;;9.00;;
47219;SDS011;32961;51.936;4.788;2023-08-30T04:33:41;17.10;;;8.88;;
47219;SDS011;32961;51.936;4.788;2023-08-30T04:36:09;12.02;;;8.80;;
47219;SDS011;32961;51.936;4.788;2023-08-30T04:38:37;18.58;;;9.70;;
47219;SDS011;32961;51.936;4.788;2023-08-30T04:41:13;17.60;;;10.32;;
47219;SDS011;32961;51.936;4.788;2023-08-30T04:43:41;13.15;;;8.82;;
47219;SDS011;32961;51.936;4.788;2023-08-30T04:46:09;14.55;;;10.43;;
47219;SDS011;32961;51.936;4.788;2023-08-30T04:48:37;13.63;;;9.38;;
47219;SDS011;32961;51.936;4.788;2023-08-30T04:51:06;13.85;;;8.88;;
47219;SDS011;32961;51.936;4.788;2023-08-30T04:53:34;13.32;;;8.57;;
47219;SDS011;32961;51.936;4.788;2023-08-30T04:56:09;12.70;;;8.38;;
47219;SDS011;32961;51.936;4.788;2023-08-30T04:58:37;16.17;;;9.45;;
47219;SDS011;32961;51.936;4.788;2023-08-30T05:01:05;12.88;;;8.27;;
47219;SDS011;32961;51.936;4.788;2023-08-30T05:03:35;13.40;;;9.50;;
47219;SDS011;32961;51.936;4.788;2023-08-30T05:06:03;12.40;;;8.32;;
47219;SDS011;32961;51.936;4.788;2023-08-30T05:08:32;16.67;;;9.80;;
47219;SDS011;32961;51.936;4.788;2023-08-30T05:11:00;17.83;;;9.45;;
47219;SDS011;32961;51.936;4.788;2023-08-30T05:13:31;11.70;;;8.32;;
47219;SDS011;32961;51.936;4.788;2023-08-30T05:15:59;13.50;;;9.15;;
47219;SDS011;32961;51.936;4.788;2023-08-30T05:18:27;12.52;;;8.52;;
47219;SDS011;32961;51.936;4.788;2023-08-30T05:20:55;12.48;;;7.95;;
47219;SDS011;32961;51.936;4.788;2023-08-30T05:23:23;16.95;;;8.30;;
47219;SDS011;32961;51.936;4.788;2023-08-30T05:25:52;14.05;;;7.97;;
47219;SDS011;32961;51.936;4.788;2023-08-30T05:28:20;13.18;;;8.05;;
47219;SDS011;32961;51.936;4.788;2023-08-30T05:30:48;17.80;;;9.48;;
47219;SDS011;32961;51.936;4.788;2023-08-30T05:33:15;15.13;;;8.38;;
47219;SDS011;32961;51.936;4.788;2023-08-30T05:35:43;12.98;;;9.23;;
47219;SDS011;32961;51.936;4.788;2023-08-30T05:38:11;16.20;;;8.95;;
47219;SDS011;32961;51.936;4.788;2023-08-30T05:40:39;23.73;;;9.20;;
47219;SDS011;32961;51.936;4.788;2023-08-30T05:43:10;21.08;;;9.68;;
47219;SDS011;32961;51.936;4.788;2023-08-30T05:45:38;16.77;;;9.60;;
47219;SDS011;32961;51.936;4.788;2023-08-30T05:48:06;14.40;;;8.98;;
47219;SDS011;32961;51.936;4.788;2023-08-30T05:50:34;15.55;;;9.48;;
47219;SDS011;32961;51.936;4.788;2023-08-30T05:53:02;18.20;;;10.27;;
47219;SDS011;32961;51.936;4.788;2023-08-30T05:55:31;15.43;;;10.38;;
47219;SDS011;32961;51.936;4.788;2023-08-30T05:57:59;19.77;;;10.05;;
47219;SDS011;32961;51.936;4.788;2023-08-30T06:00:28;15.38;;;10.10;;
47219;SDS011;32961;51.936;4.788;2023-08-30T06:02:56;15.95;;;8.85;;
47219;SDS011;32961;51.936;4.788;2023-08-30T06:05:23;18.65;;;9.57;;
47219;SDS011;32961;51.936;4.788;2023-08-30T06:07:51;15.07;;;10.10;;
47219;SDS011;32961;51.936;4.788;2023-08-30T06:10:20;15.40;;;9.43;;
47219;SDS011;32961;51.936;4.788;2023-08-30T06:12:49;14.45;;;10.07;;
47219;SDS011;32961;51.936;4.788;2023-08-30T06:15:17;13.95;;;9.38;;
47219;SDS011;32961;51.936;4.788;2023-08-30T06:17:46;16.65;;;9.77;;
47219;SDS011;32961;51.936;4.788;2023-08-30T06:20:14;15.35;;;8.93;;
47219;SDS011;32961;51.936;4.788;2023-08-30T06:22:42;13.70;;;8.57;;
47219;SDS011;32961;51.936;4.788;2023-08-30T06:25:11;20.73;;;11.98;;
47219;SDS011;32961;51.936;4.788;2023-08-30T06:27:40;15.25;;;10.25;;
47219;SDS011;32961;51.936;4.788;2023-08-30T06:30:09;13.98;;;9.27;;
47219;SDS011;32961;51.936;4.788;2023-08-30T06:32:38;12.75;;;8.68;;
47219;SDS011;32961;51.936;4.788;2023-08-30T06:35:07;14.50;;;9.07;;
47219;SDS011;32961;51.936;4.788;2023-08-30T06:37:35;14.88;;;9.18;;
47219;SDS011;32961;51.936;4.788;2023-08-30T06:40:03;15.25;;;9.05;;
47219;SDS011;32961;51.936;4.788;2023-08-30T06:42:32;14.48;;;8.38;;
47219;SDS011;32961;51.936;4.788;2023-08-30T06:45:00;17.35;;;9.30;;
47219;SDS011;32961;51.936;4.788;2023-08-30T06:47:29;15.45;;;9.77;;
47219;SDS011;32961;51.936;4.788;2023-08-30T06:49:57;16.05;;;9.57;;
47219;SDS011;32961;51.936;4.788;2023-08-30T06:52:26;17.65;;;9.50;;
47219;SDS011;32961;51.936;4.788;2023-08-30T06:54:54;14.90;;;9.23;;
47219;SDS011;32961;51.936;4.788;2023-08-30T06:57:22;13.50;;;8.55;;
47219;SDS011;32961;51.936;4.788;2023-08-30T06:59:50;14.55;;;8.68;;
47219;SDS011;32961;51.936;4.788;2023-08-30T07:02:17;13.38;;;9.00;;
47219;SDS011;32961;51.936;4.788;2023-08-30T07:04:45;11.48;;;8.43;;
47219;SDS011;32961;51.936;4.788;2023-08-30T07:07:13;15.85;;;9.25;;
47219;SDS011;32961;51.936;4.788;2023-08-30T07:09:42;11.68;;;8.13;;
47219;SDS011;32961;51.936;4.788;2023-08-30T07:12:10;11.15;;;8.20;;
47219;SDS011;32961;51.936;4.788;2023-08-30T07:14:38;11.95;;;8.05;;
47219;SDS011;32961;51.936;4.788;2023-08-30T07:17:06;14.13;;;9.02;;
47219;SDS011;32961;51.936;4.788;2023-08-30T07:19:33;14.82;;;9.25;;
47219;SDS011;32961;51.936;4.788;2023-08-30T07:22:01;12.65;;;8.10;;
47219;SDS011;32961;51.936;4.788;2023-08-30T07:24:29;11.45;;;7.70;;
47219;SDS011;32961;51.936;4.788;2023-08-30T07:26:58;13.20;;;8.32;;
47219;SDS011;32961;51.936;4.788;2023-08-30T07:29:26;11.90;;;8.52;;
47219;SDS011;32961;51.936;4.788;2023-08-30T07:31:54;11.00;;;7.80;;
47219;SDS011;32961;51.936;4.788;2023-08-30T07:34:22;10.95;;;7.10;;
47219;SDS011;32961;51.936;4.788;2023-08-30T07:36:49;11.52;;;6.57;;
47219;SDS011;32961;51.936;4.788;2023-08-30T07:39:17;10.55;;;7.43;;
47219;SDS011;32961;51.936;4.788;2023-08-30T07:41:45;9.18;;;6.57;;
47219;SDS011;32961;51.936;4.788;2023-08-30T07:44:14;12.07;;;6.85;;
47219;SDS011;32961;51.936;4.788;2023-08-30T07:46:42;11.50;;;6.57;;
47219;SDS011;32961;51.936;4.788;2023-08-30T07:49:10;7.85;;;5.57;;
47219;SDS011;32961;51.936;4.788;2023-08-30T07:51:38;7.88;;;5.75;;
47219;SDS011;32961;51.936;4.788;2023-08-30T07:54:05;10.02;;;5.63;;
47219;SDS011;32961;51.936;4.788;2023-08-30T07:56:33;8.18;;;5.75;;
47219;SDS011;32961;51.936;4.788;2023-08-30T07:59:01;6.80;;;5.25;;
47219;SDS011;32961;51.936;4.788;2023-08-30T08:01:30;9.85;;;5.25;;
47219;SDS011;32961;51.936;4.788;2023-08-30T08:03:58;8.38;;;5.28;;
47219;SDS011;32961;51.936;4.788;2023-08-30T08:06:33;7.53;;;5.15;;
47219;SDS011;32961;51.936;4.788;2023-08-30T08:09:03;7.82;;;5.75;;
47219;SDS011;32961;51.936;4.788;2023-08-30T08:11:31;8.55;;;5.45;;
47219;SDS011;32961;51.936;4.788;2023-08-30T08:13:59;7.10;;;5.32;;
47219;SDS011;32961;51.936;4.788;2023-08-30T08:16:27;7.32;;;5.00;;
47219;SDS011;32961;51.936;4.788;2023-08-30T08:18:57;9.50;;;6.10;;
47219;SDS011;32961;51.936;4.788;2023-08-30T08:21:27;7.03;;;5.45;;
47219;SDS011;32961;51.936;4.788;2023-08-30T08:23:55;8.60;;;6.30;;
47219;SDS011;32961;51.936;4.788;2023-08-30T08:26:23;6.45;;;5.78;;
47219;SDS011;32961;51.936;4.788;2023-08-30T08:28:51;9.32;;;5.72;;
47219;SDS011;32961;51.936;4.788;2023-08-30T08:31:19;8.75;;;6.38;;
47219;SDS011;32961;51.936;4.788;2023-08-30T08:33:49;10.82;;;6.30;;
47219;SDS011;32961;51.936;4.788;2023-08-30T08:36:19;8.93;;;7.00;;
47219;SDS011;32961;51.936;4.788;2023-08-30T08:38:47;7.38;;;6.18;;
47219;SDS011;32961;51.936;4.788;2023-08-30T08:41:16;8.18;;;6.68;;
47219;SDS011;32961;51.936;4.788;2023-08-30T08:43:44;8.27;;;6.43;;
47219;SDS011;32961;51.936;4.788;2023-08-30T08:46:13;8.10;;;6.45;;
47219;SDS011;32961;51.936;4.788;2023-08-30T08:48:42;8.80;;;6.63;;
47219;SDS011;32961;51.936;4.788;2023-08-30T08:51:12;9.07;;;7.13;;
47219;SDS011;32961;51.936;4.788;2023-08-30T08:53:42;9.20;;;7.72;;
47219;SDS011;32961;51.936;4.788;2023-08-30T08:56:10;8.80;;;6.78;;
47219;SDS011;32961;51.936;4.788;2023-08-30T08:58:40;8.60;;;7.25;;
47219;SDS011;32961;51.936;4.788;2023-08-30T09:01:10;8.00;;;7.20;;
47219;SDS011;32961;51.936;4.788;2023-08-30T09:03:58;8.80;;;7.90;;
47219;SDS011;32961;51.936;4.788;2023-08-30T09:06:27;9.93;;;7.65;;
47219;SDS011;32961;51.936;4.788;2023-08-30T09:08:57;7.40;;;6.60;;
47219;SDS011;32961;51.936;4.788;2023-08-30T09:11:25;10.20;;;6.03;;
47219;SDS011;32961;51.936;4.788;2023-08-30T09:14:13;7.35;;;6.18;;
47219;SDS011;32961;51.936;4.788;2023-08-30T09:16:41;8.15;;;6.65;;
47219;SDS011;32961;51.936;4.788;2023-08-30T09:19:09;9.18;;;5.28;;
47219;SDS011;32961;51.936;4.788;2023-08-30T09:21:37;5.97;;;5.13;;
47219;SDS011;32961;51.936;4.788;2023-08-30T09:24:07;5.70;;;3.67;;
47219;SDS011;32961;51.936;4.788;2023-08-30T09:26:35;8.57;;;4.07;;
47219;SDS011;32961;51.936;4.788;2023-08-30T09:29:04;5.03;;;3.75;;
47219;SDS011;32961;51.936;4.788;2023-08-30T09:31:32;5.07;;;3.05;;
47219;SDS011;32961;51.936;4.788;2023-08-30T09:34:00;5.35;;;2.90;;
47219;SDS011;32961;51.936;4.788;2023-08-30T09:36:35;5.70;;;2.40;;
47219;SDS011;32961;51.936;4.788;2023-08-30T09:39:03;6.38;;;2.45;;
47219;SDS011;32961;51.936;4.788;2023-08-30T09:41:33;4.40;;;2.38;;
47219;SDS011;32961;51.936;4.788;2023-08-30T09:44:06;6.78;;;2.60;;
47219;SDS011;32961;51.936;4.788;2023-08-30T09:46:42;10.07;;;2.55;;
47219;SDS011;32961;51.936;4.788;2023-08-30T09:49:18;9.23;;;3.00;;
47219;SDS011;32961;51.936;4.788;2023-08-30T09:51:47;7.50;;;2.97;;
47219;SDS011;32961;51.936;4.788;2023-08-30T09:54:19;7.55;;;2.60;;
47219;SDS011;32961;51.936;4.788;2023-08-30T09:56:51;7.00;;;2.83;;
47219;SDS011;32961;51.936;4.788;2023-08-30T09:59:19;9.10;;;2.97;;
47219;SDS011;32961;51.936;4.788;2023-08-30T10:01:47;8.27;;;2.47;;
47219;SDS011;32961;51.936;4.788;2023-08-30T10:04:15;9.75;;;3.58;;
47219;SDS011;32961;51.936;4.788;2023-08-30T10:06:46;8.88;;;2.75;;
47219;SDS011;32961;51.936;4.788;2023-08-30T10:09:15;6.95;;;2.80;;
47219;SDS011;32961;51.936;4.788;2023-08-30T10:11:45;10.00;;;3.00;;
47219;SDS011;32961;51.936;4.788;2023-08-30T10:14:15;8.60;;;2.78;;
47219;SDS011;32961;51.936;4.788;2023-08-30T10:16:44;7.95;;;2.35;;
47219;SDS011;32961;51.936;4.788;2023-08-30T10:19:14;11.23;;;2.58;;
47219;SDS011;32961;51.936;4.788;2023-08-30T10:21:43;7.93;;;2.67;;
47219;SDS011;32961;51.936;4.788;2023-08-30T10:24:11;6.80;;;2.20;;
47219;SDS011;32961;51.936;4.788;2023-08-30T10:27:03;9.70;;;2.33;;
47219;SDS011;32961;51.936;4.788;2023-08-30T10:29:37;8.93;;;2.35;;
47219;SDS011;32961;51.936;4.788;2023-08-30T10:32:07;12.47;;;3.00;;
47219;SDS011;32961;51.936;4.788;2023-08-30T10:34:35;5.47;;;2.33;;
47219;SDS011;32961;51.936;4.788;2023-08-30T10:37:06;8.13;;;2.63;;
47219;SDS011;32961;51.936;4.788;2023-08-30T10:39:36;8.05;;;3.67;;
47219;SDS011;32961;51.936;4.788;2023-08-30T10:42:08;10.65;;;2.85;;
47219;SDS011;32961;51.936;4.788;2023-08-30T10:44:48;16.25;;;3.70;;
47219;SDS011;32961;51.936;4.788;2023-08-30T10:47:36;9.82;;;3.00;;
47219;SDS011;32961;51.936;4.788;2023-08-30T10:50:06;11.23;;;3.30;;
47219;SDS011;32961;51.936;4.788;2023-08-30T10:52:37;6.40;;;2.75;;
47219;SDS011;32961;51.936;4.788;2023-08-30T10:55:07;7.72;;;3.10;;
47219;SDS011;32961;51.936;4.788;2023-08-30T10:57:37;10.75;;;3.17;;
47219;SDS011;32961;51.936;4.788;2023-08-30T11:00:12;13.98;;;3.42;;
47219;SDS011;32961;51.936;4.788;2023-08-30T11:02:48;11.98;;;3.78;;
47219;SDS011;32961;51.936;4.788;2023-08-30T11:05:20;10.73;;;3.35;;
47219;SDS011;32961;51.936;4.788;2023-08-30T11:07:49;15.02;;;3.75;;
47219;SDS011;32961;51.936;4.788;2023-08-30T11:10:17;13.85;;;4.07;;
47219;SDS011;32961;51.936;4.788;2023-08-30T11:12:46;14.02;;;3.63;;
47219;SDS011;32961;51.936;4.788;2023-08-30T11:15:17;10.00;;;3.30;;
47219;SDS011;32961;51.936;4.788;2023-08-30T11:17:48;13.40;;;3.88;;
47219;SDS011;32961;51.936;4.788;2023-08-30T11:20:16;12.32;;;3.75;;
47219;SDS011;32961;51.936;4.788;2023-08-30T11:22:47;10.90;;;3.83;;
47219;SDS011;32961;51.936;4.788;2023-08-30T11:25:18;14.95;;;4.68;;
47219;SDS011;32961;51.936;4.788;2023-08-30T11:27:45;13.43;;;3.63;;
47219;SDS011;32961;51.936;4.788;2023-08-30T11:30:13;9.65;;;2.97;;
47219;SDS011;32961;51.936;4.788;2023-08-30T11:32:43;12.80;;;2.83;;
47219;SDS011;32961;51.936;4.788;2023-08-30T11:35:11;12.38;;;2.97;;
47219;SDS011;32961;51.936;4.788;2023-08-30T11:37:39;10.38;;;2.90;;
47219;SDS011;32961;51.936;4.788;2023-08-30T11:40:08;8.93;;;2.15;;
47219;SDS011;32961;51.936;4.788;2023-08-30T11:42:38;6.40;;;2.08;;
47219;SDS011;32961;51.936;4.788;2023-08-30T11:45:09;7.57;;;1.90;;
47219;SDS011;32961;51.936;4.788;2023-08-30T11:47:38;9.48;;;1.98;;
47219;SDS011;32961;51.936;4.788;2023-08-30T11:53:53;9.18;;;2.17;;
47219;SDS011;32961;51.936;4.788;2023-08-30T11:56:22;12.98;;;2.55;;
47219;SDS011;32961;51.936;4.788;2023-08-30T11:58:50;13.27;;;3.30;;
47219;SDS011;32961;51.936;4.788;2023-08-30T12:01:18;10.63;;;2.70;;
47219;SDS011;32961;51.936;4.788;2023-08-30T12:03:47;12.60;;;2.25;;
47219;SDS011;32961;51.936;4.788;2023-08-30T12:06:17;14.57;;;3.28;;
47219;SDS011;32961;51.936;4.788;2023-08-30T12:08:45;9.30;;;2.47;;
47219;SDS011;32961;51.936;4.788;2023-08-30T12:11:20;8.10;;;2.63;;
47219;SDS011;32961;51.936;4.788;2023-08-30T12:13:48;11.52;;;2.60;;
47219;SDS011;32961;51.936;4.788;2023-08-30T12:16:17;11.93;;;2.40;;
47219;SDS011;32961;51.936;4.788;2023-08-30T12:18:45;8.02;;;2.75;;
47219;SDS011;32961;51.936;4.788;2023-08-30T12:21:13;7.20;;;2.33;;
47219;SDS011;32961;51.936;4.788;2023-08-30T12:23:41;5.70;;;2.13;;
47219;SDS011;32961;51.936;4.788;2023-08-30T12:26:10;17.73;;;2.85;;
47219;SDS011;32961;51.936;4.788;2023-08-30T12:28:41;11.65;;;2.60;;
47219;SDS011;32961;51.936;4.788;2023-08-30T12:31:11;15.70;;;2.92;;
47219;SDS011;32961;51.936;4.788;2023-08-30T12:33:39;13.10;;;2.47;;
47219;SDS011;32961;51.936;4.788;2023-08-30T12:36:07;10.90;;;2.10;;
47219;SDS011;32961;51.936;4.788;2023-08-30T12:38:35;8.93;;;1.55;;
47219;SDS011;32961;51.936;4.788;2023-08-30T12:41:03;3.45;;;1.50;;
47219;SDS011;32961;51.936;4.788;2023-08-30T12:43:31;6.35;;;1.35;;
47219;SDS011;32961;51.936;4.788;2023-08-30T12:46:00;3.72;;;1.50;;
47219;SDS011;32961;51.936;4.788;2023-08-30T12:48:28;6.18;;;1.83;;
47219;SDS011;32961;51.936;4.788;2023-08-30T12:50:56;6.40;;;1.95;;
47219;SDS011;32961;51.936;4.788;2023-08-30T12:53:24;8.70;;;2.05;;
47219;SDS011;32961;51.936;4.788;2023-08-30T12:55:51;8.80;;;2.15;;
47219;SDS011;32961;51.936;4.788;2023-08-30T12:58:19;7.05;;;2.10;;
47219;SDS011;32961;51.936;4.788;2023-08-30T13:00:47;14.45;;;2.60;;
47219;SDS011;32961;51.936;4.788;2023-08-30T13:03:17;6.43;;;1.70;;
47219;SDS011;32961;51.936;4.788;2023-08-30T13:05:54;5.97;;;1.80;;
47219;SDS011;32961;51.936;4.788;2023-08-30T13:08:28;9.13;;;2.20;;
47219;SDS011;32961;51.936;4.788;2023-08-30T13:10:58;8.52;;;2.05;;
47219;SDS011;32961;51.936;4.788;2023-08-30T13:13:27;7.38;;;1.80;;
47219;SDS011;32961;51.936;4.788;2023-08-30T13:15:55;8.07;;;2.35;;
47219;SDS011;32961;51.936;4.788;2023-08-30T13:18:24;8.48;;;1.98;;
47219;SDS011;32961;51.936;4.788;2023-08-30T13:20:53;6.78;;;1.75;;
47219;SDS011;32961;51.936;4.788;2023-08-30T13:23:21;10.10;;;2.30;;
47219;SDS011;32961;51.936;4.788;2023-08-30T13:25:49;10.35;;;2.20;;
47219;SDS011;32961;51.936;4.788;2023-08-30T13:28:17;7.80;;;1.90;;
47219;SDS011;32961;51.936;4.788;2023-08-30T13:30:45;4.82;;;1.63;;
47219;SDS011;32961;51.936;4.788;2023-08-30T13:33:15;6.88;;;2.25;;
47219;SDS011;32961;51.936;4.788;2023-08-30T13:38:31;5.75;;;1.50;;
47219;SDS011;32961;51.936;4.788;2023-08-30T13:40:59;7.90;;;2.15;;
47219;SDS011;32961;51.936;4.788;2023-08-30T13:43:27;6.90;;;1.55;;
47219;SDS011;32961;51.936;4.788;2023-08-30T13:45:58;7.43;;;1.88;;
47219;SDS011;32961;51.936;4.788;2023-08-30T13:58:44;4.97;;;1.45;;
47219;SDS011;32961;51.936;4.788;2023-08-30T14:01:12;10.52;;;2.20;;
47219;SDS011;32961;51.936;4.788;2023-08-30T14:03:40;10.73;;;2.58;;
47219;SDS011;32961;51.936;4.788;2023-08-30T14:06:08;8.35;;;1.55;;
47219;SDS011;32961;51.936;4.788;2023-08-30T14:08:36;7.03;;;1.40;;
47219;SDS011;32961;51.936;4.788;2023-08-30T14:11:06;6.65;;;1.52;;
47219;SDS011;32961;51.936;4.788;2023-08-30T14:13:34;10.35;;;1.60;;
47219;SDS011;32961;51.936;4.788;2023-08-30T14:16:02;9.70;;;3.13;;
47219;SDS011;32961;51.936;4.788;2023-08-30T14:18:30;5.07;;;1.58;;
47219;SDS011;32961;51.936;4.788;2023-08-30T14:20:58;4.28;;;1.60;;
47219;SDS011;32961;51.936;4.788;2023-08-30T14:23:28;9.77;;;2.28;;
47219;SDS011;32961;51.936;4.788;2023-08-30T14:25:57;5.85;;;1.40;;
47219;SDS011;32961;51.936;4.788;2023-08-30T14:28:26;5.07;;;1.60;;
47219;SDS011;32961;51.936;4.788;2023-08-30T14:30:54;7.53;;;1.50;;
47219;SDS011;32961;51.936;4.788;2023-08-30T14:33:22;7.20;;;1.73;;
47219;SDS011;32961;51.936;4.788;2023-08-30T14:35:50;5.40;;;1.30;;
47219;SDS011;32961;51.936;4.788;2023-08-30T14:38:19;13.70;;;1.90;;
47219;SDS011;32961;51.936;4.788;2023-08-30T14:40:53;7.05;;;1.55;;
47219;SDS011;32961;51.936;4.788;2023-08-30T14:43:22;7.85;;;1.60;;
47219;SDS011;32961;51.936;4.788;2023-08-30T14:45:58;8.57;;;2.03;;
47219;SDS011;32961;51.936;4.788;2023-08-30T14:48:36;8.25;;;1.70;;
47219;SDS011;32961;51.936;4.788;2023-08-30T14:51:05;6.15;;;1.50;;
47219;SDS011;32961;51.936;4.788;2023-08-30T14:53:34;5.32;;;1.35;;
47219;SDS011;32961;51.936;4.788;2023-08-30T14:56:02;7.55;;;1.80;;
47219;SDS011;32961;51.936;4.788;2023-08-30T14:58:33;4.13;;;1.50;;
47219;SDS011;32961;51.936;4.788;2023-08-30T15:01:04;5.57;;;1.50;;
47219;SDS011;32961;51.936;4.788;2023-08-30T15:03:32;6.38;;;1.88;;
47219;SDS011;32961;51.936;4.788;2023-08-30T15:06:00;6.22;;;2.00;;
47219;SDS011;32961;51.936;4.788;2023-08-30T15:08:28;11.10;;;2.15;;